Time;durP1;ratioP1;P1;durP2;ratioP2;P2;SDS_P1;SDS_P2;PMS_P1;PMS_P2;Temp;Humidity;BMP_temperature;BMP_pressure;BME280_temperature;BME280_humidity;BME280_pressure;Samples;Min_cycle;Max_cycle;Signal;HPM_P1;HPM_P2
2023/12/29 00:00:06;;;;;;;11.05;1.73;;;;;;;11.50;68.38;100497.31;7388151;19;20006;-60
2023/12/29 00:02:34;;;;;;;9.98;2.03;;;;;;;11.43;68.55;100506.75;7390592;19;20422;-59
2023/12/29 00:05:02;;;;;;;6.18;1.90;;;;;;;11.44;68.48;100495.16;7389574;19;20018;-60
2023/12/29 00:07:30;;;;;;;13.85;2.67;;;;;;;11.52;68.09;100499.84;7390299;19;20382;-60
2023/12/29 00:09:58;;;;;;;9.80;2.38;;;;;;;11.40;68.55;100497.22;7387421;19;20385;-60
2023/12/29 00:12:26;;;;;;;11.77;2.08;;;;;;;11.44;68.86;100500.47;7389167;19;20014;-60
2023/12/29 00:14:53;;;;;;;9.02;1.70;;;;;;;11.47;68.72;100495.75;7388136;19;20021;-59
2023/12/29 00:17:21;;;;;;;8.07;1.70;;;;;;;11.44;68.75;100505.75;7389551;19;20034;-59
2023/12/29 00:19:49;;;;;;;8.25;1.80;;;;;;;11.45;68.78;100495.06;7387368;19;20027;-58
2023/12/29 00:22:17;;;;;;;9.82;1.80;;;;;;;11.48;68.91;100488.63;7389509;19;20427;-57
2023/12/29 00:24:45;;;;;;;9.57;1.95;;;;;;;11.47;68.97;100482.50;7389009;19;20025;-60
2023/12/29 00:27:13;;;;;;;8.70;2.25;;;;;;;11.42;69.35;100479.38;7389676;19;20071;-59
2023/12/29 00:29:41;;;;;;;8.30;1.90;;;;;;;11.43;69.49;100518.19;7389190;19;20030;-56
2023/12/29 00:32:09;;;;;;;7.05;1.90;;;;;;;11.38;69.91;100485.06;7389297;19;20036;-59
2023/12/29 00:34:37;;;;;;;9.05;1.80;;;;;;;11.34;70.15;100489.78;7389336;19;20018;-58
2023/12/29 00:37:06;;;;;;;12.48;2.05;;;;;;;11.43;69.76;100502.28;7389162;19;20089;-57
2023/12/29 00:39:38;;;;;;;10.68;2.00;;;;;;;11.42;70.44;100495.28;7385751;19;20033;-55
2023/12/29 00:42:07;;;;;;;9.45;1.90;;;;;;;11.38;70.58;100495.69;7388996;19;20018;-57
2023/12/29 00:44:35;;;;;;;8.85;1.88;;;;;;;11.31;70.84;100486.53;7389178;19;20039;-59
2023/12/29 00:47:03;;;;;;;10.43;1.90;;;;;;;11.31;70.80;100494.47;7395384;19;20448;-60
2023/12/29 00:49:31;;;;;;;8.60;1.73;;;;;;;11.22;71.01;100473.06;7395081;19;20017;-58
2023/12/29 00:52:00;;;;;;;8.48;1.77;;;;;;;11.33;71.06;100480.16;7397831;19;20014;-55
2023/12/29 00:54:28;;;;;;;11.05;1.80;;;;;;;11.28;71.07;100487.63;7395909;19;20491;-59
2023/12/29 00:56:57;;;;;;;11.13;1.77;;;;;;;11.30;71.25;100485.69;7397088;19;20130;-56
2023/12/29 00:59:24;;;;;;;11.73;2.15;;;;;;;11.27;71.10;100487.75;7391985;19;20018;-60
2023/12/29 01:01:52;;;;;;;10.77;1.83;;;;;;;11.28;71.25;100468.22;7393835;19;20018;-57
2023/12/29 01:04:20;;;;;;;9.32;1.70;;;;;;;11.29;71.26;100489.28;7396488;19;20368;-60
2023/12/29 01:06:48;;;;;;;8.55;2.15;;;;;;;11.21;71.26;100481.13;7394066;19;20014;-61
2023/12/29 01:09:16;;;;;;;8.95;1.85;;;;;;;11.31;71.39;100486.53;7393728;19;20030;-60
2023/12/29 01:11:44;;;;;;;9.02;2.08;;;;;;;11.33;71.30;100481.94;7397603;19;20037;-60
2023/12/29 01:14:12;;;;;;;8.90;1.63;;;;;;;11.31;71.73;100486.53;7394476;19;20035;-60
2023/12/29 01:16:41;;;;;;;6.93;1.45;;;;;;;11.27;72.05;100493.06;7394776;19;20014;-60
2023/12/29 01:19:09;;;;;;;7.38;1.48;;;;;;;11.27;71.93;100477.97;7392502;19;20015;-60
2023/12/29 01:21:38;;;;;;;8.57;1.63;;;;;;;11.26;72.13;100478.97;7394118;19;20090;-61
2023/12/29 01:24:06;;;;;;;9.23;1.70;;;;;;;11.21;72.58;100473.16;7392916;19;20078;-60
2023/12/29 01:26:38;;;;;;;6.13;1.42;;;;;;;11.15;73.09;100482.47;7394518;19;20018;-61
2023/12/29 01:29:06;;;;;;;8.27;1.80;;;;;;;11.16;73.49;100472.72;7392797;19;20376;-61
2023/12/29 01:31:34;;;;;;;7.22;1.90;;;;;;;11.18;73.36;100470.75;7394802;19;20024;-60
2023/12/29 01:34:02;;;;;;;9.13;1.58;;;;;;;11.20;73.22;100468.84;7394389;19;20507;-60
2023/12/29 01:36:30;;;;;;;8.82;1.63;;;;;;;11.14;73.65;100474.63;7392875;19;20026;-58
2023/12/29 01:38:59;;;;;;;7.35;1.38;;;;;;;11.17;73.34;100472.56;7392545;19;20039;-58
2023/12/29 01:41:27;;;;;;;7.57;1.63;;;;;;;11.22;73.08;100461.63;7394369;19;20015;-60
2023/12/29 01:43:57;;;;;;;5.70;1.55;;;;;;;11.23;72.90;100466.78;7392232;19;20483;-59
2023/12/29 01:46:28;;;;;;;7.93;1.73;;;;;;;11.18;72.87;100460.16;7394459;19;20015;-60
2023/12/29 01:48:57;;;;;;;9.38;1.70;;;;;;;11.21;73.34;100455.44;7392625;19;20030;-60
2023/12/29 01:51:26;;;;;;;5.93;1.38;;;;;;;11.05;74.25;100452.38;7393904;19;20019;-59
2023/12/29 01:53:56;;;;;;;8.02;1.42;;;;;;;10.92;75.59;100455.16;7394256;19;20018;-59
2023/12/29 01:56:25;;;;;;;5.03;1.40;;;;;;;10.83;75.97;100463.00;7392162;19;20476;-59
2023/12/29 01:58:55;;;;;;;6.80;1.40;;;;;;;10.73;76.81;100450.50;7392109;19;20015;-59
2023/12/29 02:01:37;;;;;;;8.30;1.40;;;;;;;10.69;76.78;100464.94;7393635;19;20392;-59
2023/12/29 02:04:06;;;;;;;6.90;1.55;;;;;;;10.67;76.27;100452.78;7393487;19;20031;-58
2023/12/29 02:06:35;;;;;;;4.13;1.13;;;;;;;10.56;76.17;100456.25;7393265;19;20358;-56
2023/12/29 02:09:04;;;;;;;5.25;1.15;;;;;;;10.70;76.20;100447.25;7391054;19;20475;-58
2023/12/29 02:11:32;;;;;;;4.68;1.20;;;;;;;10.73;76.82;100455.78;7393516;19;20021;-58
2023/12/29 02:14:01;;;;;;;3.45;1.25;;;;;;;10.61;78.33;100438.22;7393336;19;20031;-58
2023/12/29 02:16:52;;;;;;;7.78;1.63;;;;;;;10.55;79.08;100435.22;7392557;19;20014;-58
2023/12/29 02:19:25;;;;;;;8.15;1.30;;;;;;;10.55;79.23;100430.75;7390808;19;20019;-59
2023/12/29 02:21:53;;;;;;;;;;;;;;;10.43;80.63;100437.03;7392512;19;20022;-59
2023/12/29 02:24:21;;;;;;;7.68;1.55;;;;;;;10.49;80.35;100440.03;7393510;19;19947;-59
2023/12/29 02:27:01;;;;;;;7.95;1.50;;;;;;;10.57;80.84;100435.91;7393691;19;20014;-56
2023/12/29 02:29:32;;;;;;;10.57;2.22;;;;;;;10.60;80.79;100423.28;7390866;19;20017;-57
2023/12/29 02:32:04;;;;;;;9.63;1.75;;;;;;;10.61;81.06;100424.16;7392763;19;20018;-57
2023/12/29 02:34:33;;;;;;;8.68;1.80;;;;;;;10.59;81.69;100431.34;7392986;19;20028;-59
2023/12/29 02:37:02;;;;;;;7.97;1.60;;;;;;;10.62;81.78;100418.72;7392757;19;20313;-60
2023/12/29 02:39:31;;;;;;;6.78;1.80;;;;;;;10.60;82.08;100433.88;7390471;19;20043;-60
2023/12/29 02:41:59;;;;;;;7.75;1.65;;;;;;;10.57;82.48;100412.09;7392331;19;20051;-58
2023/12/29 02:44:28;;;;;;;7.65;1.50;;;;;;;10.50;82.17;100403.81;7391626;19;20034;-60
2023/12/29 02:46:56;;;;;;;10.32;1.70;;;;;;;10.50;82.31;100390.56;7392080;19;20325;-59
2023/12/29 02:49:23;;;;;;;11.52;1.60;;;;;;;10.58;81.44;100398.75;7390384;19;20035;-56
2023/12/29 02:51:51;;;;;;;7.40;1.65;;;;;;;10.59;81.28;100384.53;7392476;19;20074;-58
2023/12/29 02:54:19;;;;;;;6.57;1.70;;;;;;;10.63;81.42;100363.94;7391720;19;20516;-57
2023/12/29 02:56:47;;;;;;;6.55;1.55;;;;;;;10.62;81.40;100354.34;7392436;19;20023;-60
2023/12/29 02:59:15;;;;;;;7.80;1.50;;;;;;;10.51;80.76;100349.91;7390850;19;20015;-57
2023/12/29 03:01:43;;;;;;;8.32;1.50;;;;;;;10.61;80.76;100352.66;7390266;19;20140;-57
2023/12/29 03:04:12;;;;;;;7.93;1.30;;;;;;;10.69;80.26;100343.13;7391814;19;20515;-59
2023/12/29 03:06:42;;;;;;;7.10;1.60;;;;;;;10.57;80.65;100348.53;7391779;19;20010;-58
2023/12/29 03:09:10;;;;;;;7.35;1.63;;;;;;;10.58;81.27;100359.03;7387827;19;20026;-59
2023/12/29 03:11:37;;;;;;;6.85;1.63;;;;;;;10.54;81.30;100359.41;7391383;19;20018;-60
2023/12/29 03:14:05;;;;;;;7.00;1.70;;;;;;;10.50;82.04;100358.81;7390984;19;20047;-59
2023/12/29 03:16:34;;;;;;;7.90;1.85;;;;;;;10.44;82.69;100354.00;7390109;19;20021;-60
2023/12/29 03:19:02;;;;;;;10.40;1.92;;;;;;;10.43;82.76;100344.38;7388099;19;20018;-59
2023/12/29 03:21:30;;;;;;;6.57;1.80;;;;;;;10.53;82.75;100355.06;7391578;19;20030;-59
2023/12/29 03:23:57;;;;;;;8.27;1.70;;;;;;;10.49;83.21;100359.75;7390831;19;20022;-60
2023/12/29 03:26:25;;;;;;;6.45;1.60;;;;;;;10.53;83.72;100353.28;7391191;19;20764;-60
2023/12/29 03:28:54;;;;;;;7.85;1.60;;;;;;;10.44;84.26;100341.59;7389693;19;20014;-60
2023/12/29 03:31:22;;;;;;;7.88;2.00;;;;;;;10.41;84.56;100348.94;7390908;19;20040;-60
2023/12/29 03:33:50;;;;;;;8.65;2.00;;;;;;;10.37;84.44;100345.69;7390566;19;20018;-60
2023/12/29 03:36:18;;;;;;;5.63;1.63;;;;;;;10.38;84.31;100335.94;7390514;19;20031;-58
2023/12/29 03:38:46;;;;;;;9.48;1.88;;;;;;;10.45;84.20;100338.00;7389575;19;20377;-60
2023/12/29 03:41:14;;;;;;;9.07;2.10;;;;;;;10.46;83.95;100447.38;7390748;19;20025;-60
2023/12/29 03:43:42;;;;;;;3.05;0.60;;;;;;;9.79;74.21;100490.38;7390622;19;20067;-60
2023/12/29 03:46:17;;;;;;;4.60;0.90;;;;;;;8.36;76.99;100510.28;7390539;19;20026;-59
2023/12/29 03:48:45;;;;;;;5.60;1.20;;;;;;;7.93;79.33;100454.31;7387890;19;20026;-59
2023/12/29 03:51:18;;;;;;;3.92;1.02;;;;;;;7.69;79.98;100462.06;7390384;19;20123;-60
2023/12/29 03:53:45;;;;;;;5.30;1.20;;;;;;;7.70;80.02;100432.13;7390196;19;20027;-60
2023/12/29 03:56:18;;;;;;;8.23;1.50;;;;;;;7.81;79.92;100442.78;7390313;19;20023;-60
2023/12/29 03:58:46;;;;;;;7.97;2.45;;;;;;;7.81;80.04;100424.34;7387622;19;20014;-60
2023/12/29 04:01:15;;;;;;;8.88;2.40;;;;;;;7.84;80.09;100389.88;7390116;19;20014;-60
2023/12/29 04:03:43;;;;;;;10.27;3.05;;;;;;;7.94;80.24;100375.13;7389913;19;20022;-60
2023/12/29 04:06:12;;;;;;;12.77;4.03;;;;;;;8.16;80.65;100394.72;7389793;19;20102;-60
2023/12/29 04:08:40;;;;;;;12.38;4.22;;;;;;;8.21;80.35;100387.34;7388630;19;20018;-60
2023/12/29 04:11:08;;;;;;;11.02;3.95;;;;;;;8.26;80.25;100390.50;7390392;19;20423;-58
2023/12/29 04:13:36;;;;;;;15.60;4.53;;;;;;;8.37;80.59;100377.44;7389454;19;20018;-60
2023/12/29 04:16:04;;;;;;;9.55;3.42;;;;;;;8.39;80.51;100388.69;7389415;19;20035;-59
2023/12/29 04:18:32;;;;;;;8.43;2.58;;;;;;;8.42;80.70;100371.81;7388296;19;20023;-59
2023/12/29 04:21:00;;;;;;;9.20;2.65;;;;;;;8.49;80.33;100365.16;7395507;19;20038;-58
2023/12/29 04:23:28;;;;;;;9.23;2.88;;;;;;;8.57;80.76;100375.16;7397411;19;20379;-56
2023/12/29 04:25:56;;;;;;;11.95;3.67;;;;;;;8.60;81.11;100374.97;7396592;19;20026;-58
2023/12/29 04:28:24;;;;;;;10.85;3.10;;;;;;;8.68;81.22;100383.16;7394259;19;20018;-56
2023/12/29 04:30:52;;;;;;;7.85;2.53;;;;;;;8.75;81.41;100368.56;7397343;19;20550;-60
2023/12/29 04:33:20;;;;;;;8.70;1.95;;;;;;;8.70;81.31;100368.91;7396683;19;20041;-59
2023/12/29 04:35:48;;;;;;;8.50;2.35;;;;;;;8.75;81.44;100371.22;7396145;19;20477;-56
2023/12/29 04:38:18;;;;;;;9.23;2.58;;;;;;;8.93;81.49;100364.59;7393773;19;20019;-57
2023/12/29 04:40:47;;;;;;;11.38;3.00;;;;;;;8.82;81.60;100364.53;7390280;19;20025;-55
2023/12/29 04:43:15;;;;;;;10.82;3.05;;;;;;;8.95;81.91;100378.53;7394981;19;20023;-61
2023/12/29 04:45:43;;;;;;;7.07;2.05;;;;;;;9.18;81.24;100368.91;7394846;19;20029;-61
2023/12/29 04:48:12;;;;;;;10.95;2.13;;;;;;;9.19;81.15;100352.09;7396476;19;20427;-61
2023/12/29 04:50:40;;;;;;;10.75;2.35;;;;;;;9.30;81.28;100367.16;7395315;19;20409;-61
2023/12/29 04:53:07;;;;;;;7.55;1.52;;;;;;;9.33;81.22;100371.38;7394873;19;20026;-61
2023/12/29 04:55:36;;;;;;;9.38;1.73;;;;;;;9.45;81.12;100370.44;7395605;19;20025;-59
2023/12/29 04:58:04;;;;;;;6.88;1.25;;;;;;;9.60;80.66;100357.88;7395479;19;20078;-62
2023/12/29 05:00:32;;;;;;;5.70;1.33;;;;;;;9.79;80.32;100349.38;7393172;19;20015;-60
2023/12/29 05:03:00;;;;;;;10.38;2.10;;;;;;;10.00;80.47;100364.44;7393971;19;20033;-58
2023/12/29 05:05:28;;;;;;;8.15;1.40;;;;;;;10.09;80.32;100356.75;7396050;19;20382;-60
2023/12/29 05:07:56;;;;;;;6.30;2.30;;;;;;;10.20;80.35;100362.03;7395304;19;20038;-60
2023/12/29 05:10:25;;;;;;;8.93;1.67;;;;;;;10.28;80.15;100364.94;7392293;19;20014;-60
2023/12/29 05:12:52;;;;;;;12.18;2.40;;;;;;;10.36;79.77;100356.41;7394112;19;20090;-60
2023/12/29 05:15:20;;;;;;;9.25;2.00;;;;;;;10.45;79.54;100355.66;7393868;19;20022;-59
2023/12/29 05:17:48;;;;;;;7.13;1.48;;;;;;;10.47;79.19;100356.41;7395544;19;20018;-60
2023/12/29 05:20:16;;;;;;;7.63;1.70;;;;;;;10.39;79.35;100357.00;7392173;19;20037;-60
2023/12/29 05:22:44;;;;;;;9.05;1.50;;;;;;;10.45;79.42;100353.03;7394816;19;20014;-60
2023/12/29 05:25:12;;;;;;;6.80;1.60;;;;;;;10.44;79.59;100357.47;7395005;19;20087;-60
2023/12/29 05:27:40;;;;;;;7.13;1.65;;;;;;;10.41;79.68;100365.66;7394607;19;20098;-60
2023/12/29 05:30:08;;;;;;;8.70;2.03;;;;;;;10.44;79.34;100367.22;7392161;19;20025;-60
2023/12/29 05:32:36;;;;;;;7.20;1.27;;;;;;;10.38;79.59;100360.63;7392526;19;20018;-60
2023/12/29 05:35:05;;;;;;;10.88;1.88;;;;;;;10.39;79.37;100353.53;7394833;19;20022;-60
2023/12/29 05:37:32;;;;;;;7.10;1.90;;;;;;;10.39;79.25;100356.16;7394194;19;20037;-60
2023/12/29 05:40:00;;;;;;;7.57;1.70;;;;;;;10.34;78.69;100348.59;7391891;19;20022;-60
2023/12/29 05:42:29;;;;;;;12.93;2.17;;;;;;;10.38;78.63;100363.28;7393314;19;20559;-59
2023/12/29 05:44:57;;;;;;;7.95;1.67;;;;;;;10.37;78.62;100364.22;7393411;19;20020;-61
2023/12/29 05:47:25;;;;;;;7.28;2.20;;;;;;;10.42;78.76;100367.34;7394091;19;20043;-61
2023/12/29 05:49:53;;;;;;;11.82;1.83;;;;;;;10.37;78.91;100380.09;7391392;19;20043;-60
2023/12/29 05:52:21;;;;;;;8.55;1.95;;;;;;;10.42;78.91;100399.13;7394287;19;20022;-60
2023/12/29 05:54:49;;;;;;;12.68;1.77;;;;;;;10.40;78.54;100392.25;7393727;19;20477;-61
2023/12/29 05:57:17;;;;;;;10.05;2.22;;;;;;;10.44;78.59;100385.75;7394202;19;20045;-60
2023/12/29 05:59:45;;;;;;;8.20;2.08;;;;;;;10.47;78.24;100393.47;7391563;19;20400;-60
2023/12/29 06:02:13;;;;;;;10.30;2.08;;;;;;;10.39;78.81;100386.13;7392065;19;20018;-59
2023/12/29 06:04:40;;;;;;;11.68;2.13;;;;;;;10.45;77.96;100398.88;7393770;19;20022;-60
2023/12/29 06:07:09;;;;;;;8.88;1.80;;;;;;;10.42;77.52;100403.59;7393318;19;20030;-60
2023/12/29 06:09:37;;;;;;;10.30;1.95;;;;;;;10.38;78.10;100415.34;7391533;19;20463;-61
2023/12/29 06:12:05;;;;;;;10.82;2.10;;;;;;;10.42;78.07;100432.69;7393721;19;20483;-61
2023/12/29 06:14:33;;;;;;;9.25;1.92;;;;;;;10.39;77.84;100428.47;7393250;19;20022;-60
2023/12/29 06:17:01;;;;;;;16.65;2.25;;;;;;;10.40;77.89;100427.50;7392908;19;20022;-60
2023/12/29 06:19:32;;;;;;;11.38;2.05;;;;;;;10.42;77.60;100419.47;7390741;19;20015;-60
2023/12/29 06:22:00;;;;;;;7.88;1.58;;;;;;;10.45;77.17;100425.34;7393395;19;20023;-60
2023/12/29 06:24:28;;;;;;;12.93;2.15;;;;;;;10.45;76.71;100411.25;7393222;19;20344;-58
2023/12/29 06:26:56;;;;;;;11.30;2.40;;;;;;;10.47;76.51;100423.41;7392656;19;20488;-59
2023/12/29 06:29:24;;;;;;;6.82;1.77;;;;;;;10.35;76.14;100389.97;7391312;19;20029;-59
2023/12/29 06:31:52;;;;;;;13.25;2.30;;;;;;;10.32;75.68;100400.81;7392878;19;20023;-59
2023/12/29 06:34:20;;;;;;;11.80;2.30;;;;;;;10.37;75.99;100397.78;7390848;19;20516;-59
2023/12/29 06:36:48;;;;;;;11.15;2.67;;;;;;;10.40;75.75;100402.84;7393047;19;20016;-59
2023/12/29 06:39:16;;;;;;;11.82;2.30;;;;;;;10.36;75.29;100388.16;7389274;19;20014;-59
2023/12/29 06:41:44;;;;;;;12.40;2.30;;;;;;;10.37;74.55;100411.84;7390599;19;20029;-59
2023/12/29 06:44:11;;;;;;;13.15;2.45;;;;;;;10.33;74.03;100402.47;7391608;19;20086;-59
2023/12/29 06:46:40;;;;;;;13.30;2.42;;;;;;;10.40;74.23;100401.03;7392222;19;20029;-59
2023/12/29 06:49:08;;;;;;;10.73;2.28;;;;;;;10.41;73.98;100409.81;7390817;19;20010;-59
2023/12/29 06:51:38;;;;;;;12.10;2.40;;;;;;;10.46;73.75;100408.50;7390883;19;20046;-60
2023/12/29 06:54:07;;;;;;;13.70;2.47;;;;;;;10.45;73.15;100398.88;7392098;19;20014;-59
2023/12/29 06:56:35;;;;;;;7.68;2.08;;;;;;;10.43;72.53;100415.84;7392411;19;20723;-60
2023/12/29 06:59:03;;;;;;;10.30;1.90;;;;;;;10.44;73.18;100421.00;7390534;19;20022;-59
2023/12/29 07:01:31;;;;;;;13.07;2.13;;;;;;;10.53;72.81;100408.00;7390395;19;20025;-59
2023/12/29 07:03:59;;;;;;;14.60;2.03;;;;;;;10.50;71.72;100406.47;7391374;19;20732;-59
2023/12/29 07:06:27;;;;;;;14.88;2.45;;;;;;;10.51;72.10;100402.84;7392009;19;20018;-58
2023/12/29 07:08:55;;;;;;;10.23;2.00;;;;;;;10.57;71.87;100412.09;7390492;19;20039;-58
2023/12/29 07:11:23;;;;;;;14.32;2.60;;;;;;;10.57;72.12;100418.25;7391427;19;20019;-57
2023/12/29 07:13:51;;;;;;;12.93;2.85;;;;;;;10.53;71.83;100411.53;7390556;19;20015;-59
2023/12/29 07:16:20;;;;;;;13.77;2.08;;;;;;;10.49;71.87;100410.91;7391466;19;20494;-58
2023/12/29 07:18:48;;;;;;;12.98;2.60;;;;;;;10.48;72.12;100417.16;7390768;19;20047;-59
2023/12/29 07:21:17;;;;;;;13.70;2.40;;;;;;;10.51;72.02;100416.06;7390534;19;20535;-59
2023/12/29 07:23:46;;;;;;;15.73;2.20;;;;;;;10.51;72.47;100437.25;7390188;19;20019;-59
2023/12/29 07:26:15;;;;;;;10.48;2.05;;;;;;;10.49;72.63;100426.81;7391722;19;20027;-59
2023/12/29 07:28:43;;;;;;;11.30;2.00;;;;;;;10.41;73.44;100423.06;7390096;19;20050;-59
2023/12/29 07:31:11;;;;;;;11.07;2.13;;;;;;;10.40;73.72;100430.16;7389600;19;20082;-59
2023/12/29 07:33:39;;;;;;;9.55;2.00;;;;;;;10.44;74.09;100430.75;7391277;19;20022;-58
2023/12/29 07:36:07;;;;;;;12.30;2.33;;;;;;;10.51;73.92;100415.25;7391131;19;20039;-59
2023/12/29 07:38:35;;;;;;;14.35;2.83;;;;;;;10.46;74.25;100397.91;7390375;19;20043;-59
2023/12/29 07:41:03;;;;;;;14.98;2.30;;;;;;;10.44;74.70;100401.63;7389779;19;20023;-59
2023/12/29 07:43:31;;;;;;;13.02;2.58;;;;;;;10.43;74.47;100397.31;7390936;19;20035;-59
2023/12/29 07:45:59;;;;;;;11.30;2.22;;;;;;;10.37;74.83;100405.72;7389458;19;20372;-59
2023/12/29 07:48:28;;;;;;;11.30;2.08;;;;;;;10.33;75.15;100422.81;7389402;19;20365;-59
2023/12/29 07:50:59;;;;;;;10.30;2.28;;;;;;;10.34;75.14;100422.72;7390383;19;20030;-59
2023/12/29 07:53:27;;;;;;;15.38;2.95;;;;;;;10.35;75.06;100411.16;7389493;19;20046;-59
2023/12/29 07:55:55;;;;;;;14.95;2.55;;;;;;;10.35;75.17;100391.78;7396579;19;20023;-59
2023/12/29 07:58:23;;;;;;;14.10;2.40;;;;;;;10.41;74.98;100386.81;7396900;19;20019;-59
2023/12/29 08:00:51;;;;;;;15.55;2.58;;;;;;;10.36;74.84;100385.53;7394116;19;20015;-59
2023/12/29 08:03:19;;;;;;;10.15;2.10;;;;;;;10.39;75.13;100390.56;7397609;19;20487;-59
2023/12/29 08:05:47;;;;;;;12.43;2.38;;;;;;;10.45;74.92;100408.59;7398297;19;20118;-58
2023/12/29 08:08:15;;;;;;;11.35;2.35;;;;;;;10.44;74.38;100402.47;7398390;19;20433;-59
2023/12/29 08:10:43;;;;;;;10.88;2.30;;;;;;;10.47;74.18;100412.00;7397524;19;20475;-55
2023/12/29 08:13:11;;;;;;;11.55;2.40;;;;;;;10.41;73.99;100408.00;7397970;19;20014;-59
2023/12/29 08:15:39;;;;;;;13.32;2.08;;;;;;;10.38;73.52;100395.03;7398276;19;20019;-59
2023/12/29 08:18:07;;;;;;;8.65;2.00;;;;;;;10.51;72.13;100416.06;7397426;19;20456;-59
2023/12/29 08:20:35;;;;;;;8.93;1.95;;;;;;;10.44;72.35;100423.66;7397556;19;20386;-58
2023/12/29 08:23:03;;;;;;;15.15;2.53;;;;;;;10.43;73.31;100429.91;7399243;19;20047;-58
2023/12/29 08:25:31;;;;;;;10.13;2.10;;;;;;;10.36;74.31;100422.56;7397491;19;20026;-59
2023/12/29 08:27:59;;;;;;;13.15;2.45;;;;;;;10.28;75.25;100423.19;7396883;19;20034;-59
2023/12/29 08:30:27;;;;;;;12.07;2.40;;;;;;;10.31;75.94;100419.47;7393847;19;20114;-57
2023/12/29 08:32:55;;;;;;;11.82;2.47;;;;;;;10.27;76.83;100408.25;7397219;19;20026;-58
2023/12/29 08:35:23;;;;;;;14.98;2.40;;;;;;;10.31;77.97;100408.88;7397073;19;20031;-59
2023/12/29 08:37:51;;;;;;;14.77;2.67;;;;;;;10.31;78.29;100407.06;7397095;19;20021;-60
2023/12/29 08:40:19;;;;;;;17.10;2.33;;;;;;;10.29;78.77;100402.84;7393204;19;20057;-59
2023/12/29 08:42:47;;;;;;;12.35;2.78;;;;;;;10.30;78.66;100407.16;7395784;19;20041;-59
2023/12/29 08:45:15;;;;;;;16.50;2.80;;;;;;;10.34;78.43;100411.25;7396863;19;20022;-59
2023/12/29 08:47:43;;;;;;;12.82;2.58;;;;;;;10.33;78.23;100413.06;7396587;19;20025;-59
2023/12/29 08:50:11;;;;;;;11.68;2.40;;;;;;;10.39;77.78;100412.59;7394545;19;20126;-54
2023/12/29 08:52:38;;;;;;;13.93;2.40;;;;;;;10.35;77.47;100421.75;7396595;19;20014;-55
2023/12/29 08:55:06;;;;;;;11.55;2.10;;;;;;;10.28;77.10;100417.88;7397539;19;20018;-55
2023/12/29 08:57:34;;;;;;;11.57;2.03;;;;;;;10.14;77.52;100444.53;7395667;19;20022;-57
2023/12/29 09:00:03;;;;;;;9.00;2.15;;;;;;;10.08;78.61;100440.56;7392872;19;20026;-56
2023/12/29 09:02:31;;;;;;;7.93;1.50;;;;;;;9.98;78.81;100437.78;7394730;19;20014;-58
2023/12/29 09:04:59;;;;;;;9.10;1.95;;;;;;;9.89;79.09;100435.00;7396232;19;20018;-59
2023/12/29 09:07:28;;;;;;;7.13;1.23;;;;;;;9.88;78.85;100426.22;7395831;19;20011;-59
2023/12/29 09:09:56;;;;;;;10.43;1.50;;;;;;;9.92;78.52;100418.88;7392755;19;20417;-59
2023/12/29 09:12:24;;;;;;;9.35;2.05;;;;;;;9.95;78.38;100424.78;7395795;19;20139;-58
2023/12/29 09:14:52;;;;;;;7.70;1.42;;;;;;;9.99;78.29;100442.09;7395519;19;20015;-60
2023/12/29 09:17:19;;;;;;;7.78;1.52;;;;;;;10.04;78.42;100457.63;7395782;19;20382;-60
2023/12/29 09:19:48;;;;;;;9.45;1.88;;;;;;;10.05;78.33;100445.25;7393457;19;20047;-60
2023/12/29 09:22:27;;;;;;;11.80;3.67;;;;;;;10.00;78.62;100461.47;7393406;19;20051;-59
2023/12/29 09:24:55;;;;;;;12.13;3.40;;;;;;;9.95;78.53;100434.50;7395171;19;20022;-60
2023/12/29 09:27:23;;;;;;;10.82;2.03;;;;;;;9.93;78.69;100455.81;7395420;19;20047;-60
2023/12/29 09:29:51;;;;;;;9.27;1.80;;;;;;;9.86;78.42;100454.56;7392609;19;20026;-58
2023/12/29 09:32:19;;;;;;;6.20;1.52;;;;;;;9.79;79.24;100458.63;7395833;19;20014;-58
2023/12/29 09:34:47;;;;;;;10.20;1.45;;;;;;;9.73;79.00;100449.38;7394765;19;20499;-59
2023/12/29 09:37:14;;;;;;;9.15;1.60;;;;;;;9.73;78.92;100446.72;7394451;19;20445;-60
2023/12/29 09:39:43;;;;;;;12.18;1.80;;;;;;;9.73;79.03;100456.47;7392233;19;20020;-60
2023/12/29 09:42:21;;;;;;;9.68;1.90;;;;;;;9.74;78.37;100445.75;7392468;19;20026;-60
2023/12/29 09:44:53;;;;;;;10.18;1.83;;;;;;;9.80;78.19;100443.59;7394585;19;20026;-60
2023/12/29 09:47:25;;;;;;;7.95;1.70;;;;;;;9.88;77.62;100451.81;7393761;19;20685;-60
2023/12/29 09:49:53;;;;;;;5.15;1.45;;;;;;;9.87;77.51;100443.03;7391790;19;20078;-60
2023/12/29 09:52:22;;;;;;;8.05;1.50;;;;;;;9.89;76.85;100448.22;7393217;19;20483;-60
2023/12/29 09:54:51;;;;;;;7.85;1.60;;;;;;;9.97;76.42;100432.59;7393756;19;20031;-59
2023/12/29 09:57:20;;;;;;;12.23;2.25;;;;;;;10.04;76.18;100433.81;7394284;19;20028;-60
2023/12/29 09:59:51;;;;;;;9.73;1.80;;;;;;;10.14;75.85;100437.44;7392468;19;20434;-60
2023/12/29 10:02:22;;;;;;;11.20;1.92;;;;;;;10.21;75.42;100422.78;7392614;19;20019;-59
2023/12/29 10:04:50;;;;;;;9.77;1.80;;;;;;;10.26;75.36;100425.09;7393538;19;20030;-60
2023/12/29 10:07:28;;;;;;;9.75;1.88;;;;;;;10.38;74.64;100425.94;7393900;19;20479;-59
2023/12/29 10:09:58;;;;;;;10.35;1.98;;;;;;;10.36;75.05;100425.22;7391126;19;20014;-60
2023/12/29 10:12:31;;;;;;;10.90;1.80;;;;;;;10.39;74.96;100427.63;7393860;19;20014;-59
2023/12/29 10:15:09;;;;;;;10.82;1.98;;;;;;;10.41;75.36;100438.94;7392041;19;20108;-59
2023/12/29 10:17:48;;;;;;;12.60;2.20;;;;;;;10.35;76.13;100426.19;7392047;19;20035;-60
2023/12/29 10:20:25;;;;;;;10.68;1.90;;;;;;;10.35;76.26;100424.38;7390613;19;20392;-59
2023/12/29 10:23:08;;;;;;;11.15;1.90;;;;;;;10.32;76.94;100435.19;7391273;19;20047;-59
2023/12/29 10:25:36;;;;;;;10.87;1.90;;;;;;;10.23;76.91;100425.31;7393451;19;20031;-60
2023/12/29 10:28:06;;;;;;;10.13;1.70;;;;;;;10.24;76.32;100450.81;7393199;19;20026;-60
2023/12/29 10:30:34;;;;;;;9.43;1.70;;;;;;;10.10;77.08;100437.78;7392550;19;20023;-59
2023/12/29 10:33:04;;;;;;;4.05;1.23;;;;;;;9.98;77.04;100432.47;7392795;19;20039;-59
2023/12/29 10:35:34;;;;;;;8.48;1.33;;;;;;;9.91;77.61;100431.25;7392704;19;20011;-59
2023/12/29 10:38:13;;;;;;;4.47;1.10;;;;;;;9.84;77.73;100453.00;7393010;19;20110;-59
2023/12/29 10:40:42;;;;;;;6.40;1.17;;;;;;;9.61;78.90;100421.19;7392024;19;20021;-59
2023/12/29 10:43:10;;;;;;;4.93;1.00;;;;;;;9.55;79.26;100436.69;7393444;19;20098;-59
2023/12/29 10:45:38;;;;;;;7.38;1.58;;;;;;;9.63;79.07;100410.53;7390406;19;20018;-59
2023/12/29 10:48:07;;;;;;;9.00;1.30;;;;;;;9.53;78.95;100413.84;7392577;19;20010;-59
2023/12/29 10:50:47;;;;;;;6.78;1.33;;;;;;;9.65;78.32;100400.66;7391502;19;20544;-60
2023/12/29 10:53:19;;;;;;;6.43;1.10;;;;;;;9.65;77.93;100421.81;7392604;19;20491;-60
2023/12/29 10:55:47;;;;;;;9.57;1.60;;;;;;;9.68;78.53;100417.13;7392114;19;20010;-59
2023/12/29 10:58:19;;;;;;;6.10;1.10;;;;;;;9.69;78.31;100402.09;7391748;19;20121;-59
2023/12/29 11:00:47;;;;;;;8.27;1.70;;;;;;;9.69;78.75;100416.19;7390755;19;20035;-58
2023/12/29 11:03:18;;;;;;;6.47;1.45;;;;;;;9.71;78.70;100416.91;7390221;19;20035;-59
2023/12/29 11:05:46;;;;;;;6.63;1.15;;;;;;;9.72;78.55;100426.50;7392369;19;20030;-59
2023/12/29 11:08:17;;;;;;;5.90;1.65;;;;;;;9.85;78.34;100418.53;7390572;19;20471;-59
2023/12/29 11:10:45;;;;;;;8.85;1.50;;;;;;;9.88;78.18;100436.81;7390821;19;20047;-59
2023/12/29 11:13:13;;;;;;;6.75;1.45;;;;;;;9.90;78.26;100424.28;7391784;19;20479;-59
2023/12/29 11:15:47;;;;;;;4.90;1.05;;;;;;;9.72;78.85;100437.09;7391607;19;20014;-59
2023/12/29 11:18:16;;;;;;;6.93;1.27;;;;;;;9.74;78.91;100427.25;7391544;19;20078;-60
2023/12/29 11:20:46;;;;;;;3.40;1.20;;;;;;;9.70;78.94;100425.81;7389365;19;20018;-59
2023/12/29 11:23:14;;;;;;;7.43;1.13;;;;;;;9.74;79.28;100435.19;7389531;19;20030;-59
2023/12/29 11:25:48;;;;;;;6.72;1.48;;;;;;;9.83;78.92;100422.22;7391162;19;20096;-58
2023/12/29 11:28:17;;;;;;;9.68;1.42;;;;;;;9.77;79.68;100415.63;7391058;19;20047;-56
2023/12/29 11:30:45;;;;;;;6.97;1.23;;;;;;;9.79;79.54;100405.75;7388883;19;20026;-56